sensor_id;sensor_type;location;lat;lon;timestamp;pressure;altitude;pressure_sealevel;temperature;humidity
45763;BME280;37512;52.408;13.356;2023-12-22T00:00:36;98055.97;;;5.45;61.34
45763;BME280;37512;52.408;13.356;2023-12-22T00:04:39;98061.47;;;5.57;61.82
45763;BME280;37512;52.408;13.356;2023-12-22T00:08:41;98056.25;;;5.82;61.26
45763;BME280;37512;52.408;13.356;2023-12-22T00:12:44;98061.31;;;5.32;62.28
45763;BME280;37512;52.408;13.356;2023-12-22T00:16:46;98066.44;;;5.14;61.24
45763;BME280;37512;52.408;13.356;2023-12-22T00:20:48;98088.91;;;5.18;61.06
45763;BME280;37512;52.408;13.356;2023-12-22T00:24:51;98076.78;;;5.49;59.93
45763;BME280;37512;52.408;13.356;2023-12-22T00:28:53;98083.53;;;5.58;58.86
45763;BME280;37512;52.408;13.356;2023-12-22T00:32:56;98093.31;;;5.64;58.73
45763;BME280;37512;52.408;13.356;2023-12-22T00:36:58;98094.78;;;5.47;59.23
45763;BME280;37512;52.408;13.356;2023-12-22T00:41:02;98124.81;;;5.34;59.89
45763;BME280;37512;52.408;13.356;2023-12-22T00:45:04;98118.91;;;5.45;60.37
45763;BME280;37512;52.408;13.356;2023-12-22T00:49:06;98117.69;;;5.14;62.67
45763;BME280;37512;52.408;13.356;2023-12-22T00:53:09;98122.00;;;5.22;62.81
45763;BME280;37512;52.408;13.356;2023-12-22T00:57:11;98139.56;;;5.03;64.73
45763;BME280;37512;52.408;13.356;2023-12-22T01:01:16;98108.31;;;5.12;65.53
45763;BME280;37512;52.408;13.356;2023-12-22T01:05:18;98148.75;;;5.27;64.57
45763;BME280;37512;52.408;13.356;2023-12-22T01:09:20;98154.88;;;5.14;65.31
45763;BME280;37512;52.408;13.356;2023-12-22T01:13:24;98162.00;;;5.34;65.40
45763;BME280;37512;52.408;13.356;2023-12-22T01:17:26;98157.31;;;5.29;65.05
45763;BME280;37512;52.408;13.356;2023-12-22T01:21:28;98162.03;;;5.07;65.06
45763;BME280;37512;52.408;13.356;2023-12-22T01:25:29;98165.81;;;5.84;63.34
45763;BME280;37512;52.408;13.356;2023-12-22T01:29:31;98163.56;;;5.81;63.46
45763;BME280;37512;52.408;13.356;2023-12-22T01:33:33;98164.00;;;5.65;64.00
45763;BME280;37512;52.408;13.356;2023-12-22T01:37:36;98171.19;;;5.38;65.04
45763;BME280;37512;52.408;13.356;2023-12-22T01:41:38;98176.31;;;5.26;66.02
45763;BME280;37512;52.408;13.356;2023-12-22T01:45:39;98183.84;;;4.90;66.83
45763;BME280;37512;52.408;13.356;2023-12-22T01:49:45;98187.75;;;5.40;65.77
45763;BME280;37512;52.408;13.356;2023-12-22T01:53:46;98183.47;;;5.12;65.83
45763;BME280;37512;52.408;13.356;2023-12-22T01:57:49;98207.78;;;5.42;65.05
45763;BME280;37512;52.408;13.356;2023-12-22T02:01:52;98183.66;;;5.44;64.86
45763;BME280;37512;52.408;13.356;2023-12-22T02:05:54;98207.34;;;5.26;65.26
45763;BME280;37512;52.408;13.356;2023-12-22T02:09:56;98196.53;;;5.27;65.22
45763;BME280;37512;52.408;13.356;2023-12-22T02:13:58;98201.63;;;5.42;65.31
45763;BME280;37512;52.408;13.356;2023-12-22T02:22:12;98208.38;;;5.31;65.05
45763;BME280;37512;52.408;13.356;2023-12-22T02:26:28;98202.06;;;5.39;65.56
45763;BME280;37512;52.408;13.356;2023-12-22T02:34:36;98207.16;;;5.34;67.35
45763;BME280;37512;52.408;13.356;2023-12-22T02:38:40;98199.16;;;4.88;67.08
45763;BME280;37512;52.408;13.356;2023-12-22T02:42:43;98204.72;;;5.39;66.41
45763;BME280;37512;52.408;13.356;2023-12-22T02:46:46;98202.03;;;5.32;66.47
45763;BME280;37512;52.408;13.356;2023-12-22T02:50:48;98205.69;;;4.92;66.99
45763;BME280;37512;52.408;13.356;2023-12-22T02:54:49;98206.88;;;4.82;67.01
45763;BME280;37512;52.408;13.356;2023-12-22T02:58:51;98217.53;;;4.96;67.08
45763;BME280;37512;52.408;13.356;2023-12-22T03:02:53;98194.88;;;5.00;67.37
45763;BME280;37512;52.408;13.356;2023-12-22T03:06:56;98181.19;;;5.16;66.78
45763;BME280;37512;52.408;13.356;2023-12-22T03:10:58;98208.16;;;4.87;67.23
45763;BME280;37512;52.408;13.356;2023-12-22T03:15:00;98189.56;;;5.20;66.75
45763;BME280;37512;52.408;13.356;2023-12-22T03:19:01;98217.16;;;5.32;66.96
45763;BME280;37512;52.408;13.356;2023-12-22T03:23:03;98214.09;;;5.15;67.14
45763;BME280;37512;52.408;13.356;2023-12-22T03:27:05;98217.50;;;4.82;68.91
45763;BME280;37512;52.408;13.356;2023-12-22T03:31:07;98215.69;;;4.90;68.36
45763;BME280;37512;52.408;13.356;2023-12-22T03:35:09;98249.53;;;4.74;68.09
45763;BME280;37512;52.408;13.356;2023-12-22T03:39:10;98234.50;;;5.14;66.68
45763;BME280;37512;52.408;13.356;2023-12-22T03:43:15;98226.94;;;4.98;67.32
45763;BME280;37512;52.408;13.356;2023-12-22T03:47:16;98216.13;;;5.33;65.73
45763;BME280;37512;52.408;13.356;2023-12-22T03:51:18;98212.63;;;4.86;67.24
45763;BME280;37512;52.408;13.356;2023-12-22T03:55:20;98222.88;;;5.22;66.23
45763;BME280;37512;52.408;13.356;2023-12-22T03:59:22;98214.28;;;5.13;66.54
45763;BME280;37512;52.408;13.356;2023-12-22T04:03:24;98231.06;;;5.27;66.49
45763;BME280;37512;52.408;13.356;2023-12-22T04:07:26;98225.31;;;5.10;67.39
45763;BME280;37512;52.408;13.356;2023-12-22T04:11:27;98233.22;;;4.84;68.08
45763;BME280;37512;52.408;13.356;2023-12-22T04:15:29;98233.72;;;4.40;72.29
45763;BME280;37512;52.408;13.356;2023-12-22T04:19:30;98213.09;;;4.35;73.37
45763;BME280;37512;52.408;13.356;2023-12-22T04:23:32;98215.63;;;4.57;72.64
45763;BME280;37512;52.408;13.356;2023-12-22T04:27:34;98218.28;;;4.09;75.96
45763;BME280;37512;52.408;13.356;2023-12-22T04:31:36;98196.16;;;4.36;75.04
45763;BME280;37512;52.408;13.356;2023-12-22T04:35:40;98206.06;;;4.14;75.26
45763;BME280;37512;52.408;13.356;2023-12-22T04:39:44;98191.75;;;4.63;75.67
45763;BME280;37512;52.408;13.356;2023-12-22T04:43:46;98200.38;;;4.17;74.90
45763;BME280;37512;52.408;13.356;2023-12-22T04:47:47;98191.75;;;4.63;74.33
45763;BME280;37512;52.408;13.356;2023-12-22T04:51:49;98190.94;;;4.02;77.53
45763;BME280;37512;52.408;13.356;2023-12-22T04:55:51;98186.41;;;3.96;79.11
45763;BME280;37512;52.408;13.356;2023-12-22T04:59:53;98218.66;;;3.71;80.51
45763;BME280;37512;52.408;13.356;2023-12-22T05:03:54;98243.34;;;4.06;79.48
45763;BME280;37512;52.408;13.356;2023-12-22T05:07:56;98231.19;;;3.07;84.54
45763;BME280;37512;52.408;13.356;2023-12-22T05:11:58;98234.78;;;2.99;83.57
45763;BME280;37512;52.408;13.356;2023-12-22T05:16:00;98214.97;;;3.66;80.98
45763;BME280;37512;52.408;13.356;2023-12-22T05:20:03;98204.28;;;3.52;81.32
45763;BME280;37512;52.408;13.356;2023-12-22T05:24:05;98209.88;;;3.36;80.81
45763;BME280;37512;52.408;13.356;2023-12-22T05:28:07;98221.41;;;3.28;80.68
45763;BME280;37512;52.408;13.356;2023-12-22T05:32:08;98216.97;;;3.63;81.14
45763;BME280;37512;52.408;13.356;2023-12-22T05:36:12;98217.66;;;3.44;81.33
45763;BME280;37512;52.408;13.356;2023-12-22T05:40:14;98229.56;;;3.06;81.65
45763;BME280;37512;52.408;13.356;2023-12-22T05:44:15;98222.00;;;3.52;81.44
45763;BME280;37512;52.408;13.356;2023-12-22T05:48:17;98203.09;;;3.61;79.70
45763;BME280;37512;52.408;13.356;2023-12-22T05:52:19;98212.66;;;3.56;79.61
45763;BME280;37512;52.408;13.356;2023-12-22T05:56:21;98206.13;;;3.86;78.15
45763;BME280;37512;52.408;13.356;2023-12-22T06:00:22;98209.63;;;3.59;77.88
45763;BME280;37512;52.408;13.356;2023-12-22T06:04:26;98218.38;;;3.94;74.26
45763;BME280;37512;52.408;13.356;2023-12-22T06:08:28;98216.84;;;3.72;73.57
45763;BME280;37512;52.408;13.356;2023-12-22T06:12:31;98224.28;;;3.89;73.31
45763;BME280;37512;52.408;13.356;2023-12-22T06:16:32;98231.56;;;3.81;72.40
45763;BME280;37512;52.408;13.356;2023-12-22T06:20:34;98226.22;;;3.74;73.69
45763;BME280;37512;52.408;13.356;2023-12-22T06:24:41;98215.91;;;3.86;72.49
45763;BME280;37512;52.408;13.356;2023-12-22T06:28:43;98223.78;;;4.07;70.83
45763;BME280;37512;52.408;13.356;2023-12-22T06:32:46;98227.94;;;3.60;72.39
45763;BME280;37512;52.408;13.356;2023-12-22T06:36:47;98231.28;;;4.04;71.84
45763;BME280;37512;52.408;13.356;2023-12-22T06:40:53;98224.25;;;3.83;72.79
45763;BME280;37512;52.408;13.356;2023-12-22T06:44:55;98212.25;;;3.87;73.47
45763;BME280;37512;52.408;13.356;2023-12-22T06:48:57;98214.91;;;3.87;74.05
45763;BME280;37512;52.408;13.356;2023-12-22T06:53:00;98208.22;;;3.98;73.60
45763;BME280;37512;52.408;13.356;2023-12-22T06:57:14;98224.19;;;3.76;75.12
45763;BME280;37512;52.408;13.356;2023-12-22T07:01:22;98238.13;;;3.85;75.46
45763;BME280;37512;52.408;13.356;2023-12-22T07:05:32;98229.03;;;3.66;75.38
45763;BME280;37512;52.408;13.356;2023-12-22T07:09:35;98263.72;;;3.78;74.53
45763;BME280;37512;52.408;13.356;2023-12-22T07:13:38;98245.09;;;4.34;71.74
45763;BME280;37512;52.408;13.356;2023-12-22T07:17:40;98291.09;;;3.85;71.40
45763;BME280;37512;52.408;13.356;2023-12-22T07:21:44;98286.94;;;4.04;71.16
45763;BME280;37512;52.408;13.356;2023-12-22T07:25:48;98318.56;;;4.40;70.84
45763;BME280;37512;52.408;13.356;2023-12-22T07:29:51;98301.38;;;4.70;69.66
45763;BME280;37512;52.408;13.356;2023-12-22T07:33:53;98306.75;;;4.08;69.49
45763;BME280;37512;52.408;13.356;2023-12-22T07:37:56;98314.00;;;4.27;69.55
45763;BME280;37512;52.408;13.356;2023-12-22T07:41:59;98307.41;;;4.58;68.36
45763;BME280;37512;52.408;13.356;2023-12-22T07:46:01;98322.13;;;4.26;68.56
45763;BME280;37512;52.408;13.356;2023-12-22T07:50:04;98327.72;;;4.37;68.42
45763;BME280;37512;52.408;13.356;2023-12-22T07:54:10;98309.78;;;4.87;67.64
45763;BME280;37512;52.408;13.356;2023-12-22T07:58:13;98309.47;;;4.21;67.58
45763;BME280;37512;52.408;13.356;2023-12-22T08:02:16;98328.84;;;4.56;67.07
45763;BME280;37512;52.408;13.356;2023-12-22T08:06:18;98312.31;;;4.54;66.82
45763;BME280;37512;52.408;13.356;2023-12-22T08:10:21;98351.00;;;4.42;67.95
45763;BME280;37512;52.408;13.356;2023-12-22T08:14:24;98362.75;;;4.33;67.99
45763;BME280;37512;52.408;13.356;2023-12-22T08:18:27;98374.53;;;4.23;68.49
45763;BME280;37512;52.408;13.356;2023-12-22T08:22:28;98351.63;;;4.16;70.20
45763;BME280;37512;52.408;13.356;2023-12-22T08:26:33;98337.00;;;3.92;72.07
45763;BME280;37512;52.408;13.356;2023-12-22T08:30:35;98366.94;;;3.65;72.68
45763;BME280;37512;52.408;13.356;2023-12-22T08:34:37;98384.19;;;3.60;71.41
45763;BME280;37512;52.408;13.356;2023-12-22T08:38:39;98371.47;;;3.49;71.38
45763;BME280;37512;52.408;13.356;2023-12-22T08:42:43;98377.63;;;3.78;69.98
45763;BME280;37512;52.408;13.356;2023-12-22T08:46:45;98388.53;;;3.89;69.64
45763;BME280;37512;52.408;13.356;2023-12-22T08:50:48;98395.22;;;4.07;68.95
45763;BME280;37512;52.408;13.356;2023-12-22T08:54:52;98396.53;;;4.17;68.69
45763;BME280;37512;52.408;13.356;2023-12-22T08:58:56;98406.00;;;4.05;67.96
45763;BME280;37512;52.408;13.356;2023-12-22T09:03:01;98420.56;;;4.44;66.88
45763;BME280;37512;52.408;13.356;2023-12-22T09:07:04;98406.88;;;4.40;67.27
45763;BME280;37512;52.408;13.356;2023-12-22T09:11:06;98411.50;;;4.66;65.61
45763;BME280;37512;52.408;13.356;2023-12-22T09:15:09;98423.50;;;4.56;64.41
45763;BME280;37512;52.408;13.356;2023-12-22T09:19:11;98415.25;;;4.44;64.65
45763;BME280;37512;52.408;13.356;2023-12-22T09:23:13;98419.47;;;4.66;64.18
45763;BME280;37512;52.408;13.356;2023-12-22T09:27:15;98427.28;;;4.74;63.83
45763;BME280;37512;52.408;13.356;2023-12-22T09:31:17;98439.25;;;4.98;62.26
45763;BME280;37512;52.408;13.356;2023-12-22T09:35:20;98440.47;;;4.61;63.30
45763;BME280;37512;52.408;13.356;2023-12-22T09:39:22;98445.38;;;4.99;61.47
45763;BME280;37512;52.408;13.356;2023-12-22T09:43:25;98439.34;;;4.77;61.77
45763;BME280;37512;52.408;13.356;2023-12-22T09:47:27;98475.66;;;5.11;61.60
45763;BME280;37512;52.408;13.356;2023-12-22T09:51:33;98461.56;;;5.10;61.80
45763;BME280;37512;52.408;13.356;2023-12-22T09:55:35;98450.47;;;5.00;61.32
45763;BME280;37512;52.408;13.356;2023-12-22T09:59:40;98484.25;;;5.13;61.02
45763;BME280;37512;52.408;13.356;2023-12-22T10:03:42;98473.19;;;5.09;60.58
45763;BME280;37512;52.408;13.356;2023-12-22T10:07:48;98475.22;;;5.55;59.98
45763;BME280;37512;52.408;13.356;2023-12-22T10:11:52;98470.16;;;5.60;59.19
45763;BME280;37512;52.408;13.356;2023-12-22T10:15:55;98515.63;;;5.03;59.51
45763;BME280;37512;52.408;13.356;2023-12-22T10:19:58;98474.84;;;5.65;59.05
45763;BME280;37512;52.408;13.356;2023-12-22T10:23:59;98501.63;;;5.57;58.35
45763;BME280;37512;52.408;13.356;2023-12-22T10:28:01;98476.53;;;5.79;57.32
45763;BME280;37512;52.408;13.356;2023-12-22T10:32:07;98468.91;;;5.56;57.96
45763;BME280;37512;52.408;13.356;2023-12-22T10:36:09;98487.97;;;5.73;57.31
45763;BME280;37512;52.408;13.356;2023-12-22T10:40:12;98484.09;;;5.89;57.04
45763;BME280;37512;52.408;13.356;2023-12-22T10:44:15;98488.09;;;6.52;56.04
45763;BME280;37512;52.408;13.356;2023-12-22T10:48:19;98494.25;;;5.59;56.19
45763;BME280;37512;52.408;13.356;2023-12-22T10:52:21;98494.59;;;5.97;56.02
45763;BME280;37512;52.408;13.356;2023-12-22T10:56:23;98497.50;;;5.54;56.51
45763;BME280;37512;52.408;13.356;2023-12-22T11:00:26;98491.97;;;6.37;56.37
45763;BME280;37512;52.408;13.356;2023-12-22T11:04:35;98487.88;;;6.21;56.97
45763;BME280;37512;52.408;13.356;2023-12-22T11:08:40;98471.31;;;6.39;55.96
45763;BME280;37512;52.408;13.356;2023-12-22T11:12:44;98487.09;;;7.38;54.75
45763;BME280;37512;52.408;13.356;2023-12-22T11:16:48;98469.88;;;6.36;55.34
45763;BME280;37512;52.408;13.356;2023-12-22T11:20:51;98485.81;;;6.56;54.41
45763;BME280;37512;52.408;13.356;2023-12-22T11:24:56;98488.28;;;6.38;54.90
45763;BME280;37512;52.408;13.356;2023-12-22T11:29:02;98485.47;;;5.71;56.32
45763;BME280;37512;52.408;13.356;2023-12-22T11:33:05;98494.19;;;6.86;54.67
45763;BME280;37512;52.408;13.356;2023-12-22T11:37:08;98499.63;;;7.24;53.31
45763;BME280;37512;52.408;13.356;2023-12-22T11:41:21;98495.25;;;6.45;55.14
45763;BME280;37512;52.408;13.356;2023-12-22T11:45:24;98503.41;;;6.17;56.21
45763;BME280;37512;52.408;13.356;2023-12-22T11:49:36;98468.44;;;6.60;55.85
45763;BME280;37512;52.408;13.356;2023-12-22T11:53:38;98500.19;;;5.67;57.97
45763;BME280;37512;52.408;13.356;2023-12-22T11:57:40;98511.56;;;5.41;58.49
45763;BME280;37512;52.408;13.356;2023-12-22T12:01:42;98507.19;;;5.82;58.20
45763;BME280;37512;52.408;13.356;2023-12-22T12:05:44;98490.72;;;6.19;56.03
45763;BME280;37512;52.408;13.356;2023-12-22T12:09:46;98508.09;;;6.02;57.60
45763;BME280;37512;52.408;13.356;2023-12-22T12:13:49;98541.25;;;5.58;58.43
45763;BME280;37512;52.408;13.356;2023-12-22T12:17:51;98503.22;;;6.12;57.51
45763;BME280;37512;52.408;13.356;2023-12-22T12:21:54;98510.53;;;5.97;57.39
45763;BME280;37512;52.408;13.356;2023-12-22T12:25:56;98512.63;;;6.21;56.91
45763;BME280;37512;52.408;13.356;2023-12-22T12:30:06;98515.59;;;5.85;57.54
45763;BME280;37512;52.408;13.356;2023-12-22T12:34:10;98501.94;;;6.01;57.23
45763;BME280;37512;52.408;13.356;2023-12-22T12:38:13;98507.34;;;5.60;58.83
45763;BME280;37512;52.408;13.356;2023-12-22T12:42:20;98526.97;;;5.66;59.04
45763;BME280;37512;52.408;13.356;2023-12-22T12:46:34;98504.44;;;5.55;59.29
45763;BME280;37512;52.408;13.356;2023-12-22T12:50:37;98521.25;;;5.21;59.75
45763;BME280;37512;52.408;13.356;2023-12-22T12:54:52;98505.09;;;5.70;59.10
45763;BME280;37512;52.408;13.356;2023-12-22T12:58:55;98506.53;;;5.66;59.09
45763;BME280;37512;52.408;13.356;2023-12-22T13:03:04;98508.41;;;5.79;58.95
45763;BME280;37512;52.408;13.356;2023-12-22T13:07:09;98503.91;;;5.80;59.35
45763;BME280;37512;52.408;13.356;2023-12-22T13:11:12;98511.44;;;5.63;58.87
45763;BME280;37512;52.408;13.356;2023-12-22T13:15:14;98489.19;;;5.77;58.64
45763;BME280;37512;52.408;13.356;2023-12-22T13:19:16;98509.34;;;5.52;58.47
45763;BME280;37512;52.408;13.356;2023-12-22T13:23:18;98506.94;;;5.63;58.08
45763;BME280;37512;52.408;13.356;2023-12-22T13:27:20;98502.97;;;5.39;58.02
45763;BME280;37512;52.408;13.356;2023-12-22T13:31:22;98516.19;;;5.87;56.57
45763;BME280;37512;52.408;13.356;2023-12-22T13:35:25;98532.09;;;5.26;58.03
45763;BME280;37512;52.408;13.356;2023-12-22T13:39:28;98491.81;;;5.64;57.69
45763;BME280;37512;52.408;13.356;2023-12-22T13:43:30;98494.72;;;5.75;57.81
45763;BME280;37512;52.408;13.356;2023-12-22T13:47:32;98508.22;;;5.74;57.68
45763;BME280;37512;52.408;13.356;2023-12-22T13:51:41;98508.00;;;5.75;58.29
45763;BME280;37512;52.408;13.356;2023-12-22T13:55:58;98512.84;;;6.33;58.54
45763;BME280;37512;52.408;13.356;2023-12-22T14:00:00;98522.31;;;5.81;61.18
45763;BME280;37512;52.408;13.356;2023-12-22T14:04:01;98542.56;;;5.82;61.76
45763;BME280;37512;52.408;13.356;2023-12-22T14:08:04;98543.66;;;5.94;61.14
45763;BME280;37512;52.408;13.356;2023-12-22T14:12:06;98545.66;;;5.03;63.10
45763;BME280;37512;52.408;13.356;2023-12-22T14:16:14;98540.72;;;5.35;62.68
45763;BME280;37512;52.408;13.356;2023-12-22T14:20:16;98574.06;;;5.09;62.74
45763;BME280;37512;52.408;13.356;2023-12-22T14:24:20;98551.13;;;5.02;63.16
45763;BME280;37512;52.408;13.356;2023-12-22T14:28:22;98561.47;;;5.18;62.23
45763;BME280;37512;52.408;13.356;2023-12-22T14:32:23;98571.41;;;4.81;62.69
45763;BME280;37512;52.408;13.356;2023-12-22T14:36:25;98570.84;;;4.86;61.80
45763;BME280;37512;52.408;13.356;2023-12-22T14:40:27;98564.91;;;4.84;61.58
45763;BME280;37512;52.408;13.356;2023-12-22T14:44:28;98562.94;;;4.93;60.97
45763;BME280;37512;52.408;13.356;2023-12-22T14:48:30;98566.50;;;5.06;60.59
45763;BME280;37512;52.408;13.356;2023-12-22T14:52:32;98566.84;;;4.97;60.49
45763;BME280;37512;52.408;13.356;2023-12-22T14:56:33;98580.47;;;4.87;60.49
45763;BME280;37512;52.408;13.356;2023-12-22T15:00:35;98571.56;;;4.73;61.69
45763;BME280;37512;52.408;13.356;2023-12-22T15:04:37;98568.75;;;4.81;61.27
45763;BME280;37512;52.408;13.356;2023-12-22T15:08:39;98568.91;;;4.73;62.46
45763;BME280;37512;52.408;13.356;2023-12-22T15:12:40;98570.19;;;4.84;62.42
45763;BME280;37512;52.408;13.356;2023-12-22T15:16:44;98577.78;;;4.59;63.61
45763;BME280;37512;52.408;13.356;2023-12-22T15:20:46;98591.66;;;4.61;63.11
45763;BME280;37512;52.408;13.356;2023-12-22T15:24:50;98586.38;;;4.89;62.80
45763;BME280;37512;52.408;13.356;2023-12-22T15:28:54;98592.97;;;4.50;64.63
45763;BME280;37512;52.408;13.356;2023-12-22T15:32:56;98587.06;;;4.70;64.82
45763;BME280;37512;52.408;13.356;2023-12-22T15:36:57;98581.75;;;4.98;63.65
45763;BME280;37512;52.408;13.356;2023-12-22T15:41:02;98599.56;;;4.54;65.05
45763;BME280;37512;52.408;13.356;2023-12-22T15:45:05;98606.69;;;4.54;65.39
45763;BME280;37512;52.408;13.356;2023-12-22T15:49:07;98623.97;;;4.50;65.64
45763;BME280;37512;52.408;13.356;2023-12-22T15:53:09;98614.78;;;4.46;66.40
45763;BME280;37512;52.408;13.356;2023-12-22T15:57:11;98604.03;;;4.33;67.07
45763;BME280;37512;52.408;13.356;2023-12-22T16:01:13;98576.81;;;4.95;65.42
45763;BME280;37512;52.408;13.356;2023-12-22T16:05:17;98580.91;;;4.48;67.18
45763;BME280;37512;52.408;13.356;2023-12-22T16:09:19;98598.84;;;4.46;66.42
45763;BME280;37512;52.408;13.356;2023-12-22T16:13:22;98596.13;;;4.61;67.17
45763;BME280;37512;52.408;13.356;2023-12-22T16:17:26;98604.06;;;4.54;67.71
45763;BME280;37512;52.408;13.356;2023-12-22T16:21:27;98606.44;;;4.98;65.45
45763;BME280;37512;52.408;13.356;2023-12-22T16:25:29;98609.16;;;4.34;66.78
45763;BME280;37512;52.408;13.356;2023-12-22T16:29:38;98597.09;;;5.02;64.40
45763;BME280;37512;52.408;13.356;2023-12-22T16:33:40;98594.28;;;5.10;63.84
45763;BME280;37512;52.408;13.356;2023-12-22T16:37:44;98609.19;;;5.05;64.43
45763;BME280;37512;52.408;13.356;2023-12-22T16:41:47;98619.44;;;4.65;63.88
45763;BME280;37512;52.408;13.356;2023-12-22T16:45:49;98594.78;;;4.93;63.09
45763;BME280;37512;52.408;13.356;2023-12-22T16:49:51;98594.59;;;5.22;61.95
45763;BME280;37512;52.408;13.356;2023-12-22T16:53:53;98596.06;;;4.75;62.77
45763;BME280;37512;52.408;13.356;2023-12-22T16:57:56;98589.50;;;4.99;63.03
45763;BME280;37512;52.408;13.356;2023-12-22T17:01:58;98601.41;;;5.03;62.54
45763;BME280;37512;52.408;13.356;2023-12-22T17:06:20;98601.53;;;4.95;63.61
45763;BME280;37512;52.408;13.356;2023-12-22T17:10:22;98608.09;;;4.99;63.74
45763;BME280;37512;52.408;13.356;2023-12-22T17:14:23;98597.44;;;4.93;63.47
45763;BME280;37512;52.408;13.356;2023-12-22T17:18:25;98605.41;;;5.21;62.89
45763;BME280;37512;52.408;13.356;2023-12-22T17:22:26;98596.47;;;5.28;62.51
45763;BME280;37512;52.408;13.356;2023-12-22T17:26:28;98582.63;;;5.05;62.85
45763;BME280;37512;52.408;13.356;2023-12-22T17:30:30;98591.88;;;5.15;63.40
45763;BME280;37512;52.408;13.356;2023-12-22T17:34:32;98599.31;;;4.99;63.49
45763;BME280;37512;52.408;13.356;2023-12-22T17:38:34;98577.03;;;4.93;63.59
45763;BME280;37512;52.408;13.356;2023-12-22T17:42:36;98605.50;;;5.06;63.15
45763;BME280;37512;52.408;13.356;2023-12-22T17:46:38;98597.16;;;5.43;62.52
45763;BME280;37512;52.408;13.356;2023-12-22T17:50:40;98602.16;;;4.97;63.66
45763;BME280;37512;52.408;13.356;2023-12-22T17:54:42;98616.47;;;5.03;63.15
45763;BME280;37512;52.408;13.356;2023-12-22T17:58:44;98631.00;;;5.35;62.20
45763;BME280;37512;52.408;13.356;2023-12-22T18:02:46;98636.09;;;4.80;64.06
45763;BME280;37512;52.408;13.356;2023-12-22T18:06:50;98648.16;;;4.83;64.04
45763;BME280;37512;52.408;13.356;2023-12-22T18:10:52;98646.34;;;5.05;62.58
45763;BME280;37512;52.408;13.356;2023-12-22T18:14:54;98655.81;;;4.93;63.34
45763;BME280;37512;52.408;13.356;2023-12-22T18:18:55;98645.75;;;5.09;62.80
45763;BME280;37512;52.408;13.356;2023-12-22T18:22:57;98641.06;;;5.39;62.45
45763;BME280;37512;52.408;13.356;2023-12-22T18:27:00;98640.44;;;5.09;63.22
45763;BME280;37512;52.408;13.356;2023-12-22T18:31:02;98638.25;;;5.20;62.86
45763;BME280;37512;52.408;13.356;2023-12-22T18:35:05;98639.13;;;5.27;62.44
45763;BME280;37512;52.408;13.356;2023-12-22T18:39:07;98660.16;;;5.00;63.43
45763;BME280;37512;52.408;13.356;2023-12-22T18:43:09;98652.81;;;5.02;63.24
45763;BME280;37512;52.408;13.356;2023-12-22T18:47:12;98659.97;;;5.23;62.59
45763;BME280;37512;52.408;13.356;2023-12-22T18:51:14;98661.78;;;5.23;62.68
45763;BME280;37512;52.408;13.356;2023-12-22T18:55:15;98641.41;;;5.30;62.69
45763;BME280;37512;52.408;13.356;2023-12-22T18:59:18;98642.97;;;5.52;61.72
45763;BME280;37512;52.408;13.356;2023-12-22T19:03:20;98646.34;;;5.05;62.72
45763;BME280;37512;52.408;13.356;2023-12-22T19:07:22;98659.34;;;5.00;62.85
45763;BME280;37512;52.408;13.356;2023-12-22T19:11:24;98667.34;;;5.28;62.61
45763;BME280;37512;52.408;13.356;2023-12-22T19:15:25;98660.72;;;5.45;62.10
45763;BME280;37512;52.408;13.356;2023-12-22T19:19:28;98675.88;;;5.23;63.13
45763;BME280;37512;52.408;13.356;2023-12-22T19:23:30;98664.31;;;5.65;61.86
45763;BME280;37512;52.408;13.356;2023-12-22T19:27:31;98672.41;;;5.23;63.61
45763;BME280;37512;52.408;13.356;2023-12-22T19:31:33;98676.44;;;5.19;62.94
45763;BME280;37512;52.408;13.356;2023-12-22T19:35:36;98664.00;;;5.47;63.13
45763;BME280;37512;52.408;13.356;2023-12-22T19:39:38;98662.56;;;5.44;63.82
45763;BME280;37512;52.408;13.356;2023-12-22T19:43:40;98657.97;;;5.32;63.23
45763;BME280;37512;52.408;13.356;2023-12-22T19:47:41;98644.97;;;5.15;63.45
45763;BME280;37512;52.408;13.356;2023-12-22T19:51:45;98650.19;;;5.30;61.85
45763;BME280;37512;52.408;13.356;2023-12-22T19:55:47;98652.75;;;5.17;61.09
45763;BME280;37512;52.408;13.356;2023-12-22T19:59:49;98666.78;;;5.67;60.06
45763;BME280;37512;52.408;13.356;2023-12-22T20:03:51;98676.63;;;5.38;58.16
45763;BME280;37512;52.408;13.356;2023-12-22T20:07:53;98676.00;;;5.15;58.46
45763;BME280;37512;52.408;13.356;2023-12-22T20:11:55;98682.06;;;5.58;56.76
45763;BME280;37512;52.408;13.356;2023-12-22T20:16:00;98681.16;;;4.95;58.52
45763;BME280;37512;52.408;13.356;2023-12-22T20:20:02;98687.22;;;5.10;58.18
45763;BME280;37512;52.408;13.356;2023-12-22T20:24:06;98671.38;;;5.52;56.76
45763;BME280;37512;52.408;13.356;2023-12-22T20:28:08;98695.41;;;5.15;58.98
45763;BME280;37512;52.408;13.356;2023-12-22T20:32:10;98700.66;;;4.66;62.03
45763;BME280;37512;52.408;13.356;2023-12-22T20:36:12;98695.69;;;5.21;62.68
45763;BME280;37512;52.408;13.356;2023-12-22T20:40:14;98699.94;;;4.36;69.37
45763;BME280;37512;52.408;13.356;2023-12-22T20:44:15;98708.75;;;4.07;72.60
45763;BME280;37512;52.408;13.356;2023-12-22T20:48:17;98694.16;;;4.33;72.61
45763;BME280;37512;52.408;13.356;2023-12-22T20:52:19;98729.22;;;3.69;75.73
45763;BME280;37512;52.408;13.356;2023-12-22T20:56:22;98703.19;;;4.02;76.42
45763;BME280;37512;52.408;13.356;2023-12-22T21:00:26;98697.47;;;4.35;76.22
45763;BME280;37512;52.408;13.356;2023-12-22T21:04:28;98712.59;;;3.90;77.91
45763;BME280;37512;52.408;13.356;2023-12-22T21:08:30;98710.47;;;4.30;76.37
45763;BME280;37512;52.408;13.356;2023-12-22T21:12:32;98692.09;;;4.13;76.58
45763;BME280;37512;52.408;13.356;2023-12-22T21:16:34;98672.22;;;4.03;77.31
45763;BME280;37512;52.408;13.356;2023-12-22T21:20:36;98679.84;;;4.27;75.64
45763;BME280;37512;52.408;13.356;2023-12-22T21:24:41;98672.34;;;3.65;77.49
45763;BME280;37512;52.408;13.356;2023-12-22T21:28:42;98686.28;;;3.74;77.19
45763;BME280;37512;52.408;13.356;2023-12-22T21:32:44;98806.97;;;4.50;74.61